createdAt,value
2022-08-17T00:00:49.499Z,4.40
2022-08-17T00:01:52.677Z,4.50
2022-08-17T00:02:48.383Z,4.20
2022-08-17T00:03:47.287Z,4.50
2022-08-17T00:04:50.536Z,3.70
2022-08-17T00:05:48.282Z,4.40
2022-08-17T00:06:48.632Z,3.90
2022-08-17T00:07:47.263Z,4.10
2022-08-17T00:08:47.256Z,4.20
2022-08-17T00:09:47.240Z,4.00
2022-08-17T00:10:47.231Z,3.90
2022-08-17T00:12:34.615Z,3.90
2022-08-17T00:12:48.219Z,4.10
2022-08-17T00:13:47.213Z,4.00
2022-08-17T00:14:47.205Z,4.30
2022-08-17T00:15:47.194Z,4.10
2022-08-17T00:16:53.411Z,4.10
2022-08-17T00:17:48.177Z,4.30
2022-08-17T00:19:00.918Z,4.30
2022-08-17T00:19:48.160Z,4.10
2022-08-17T00:20:47.158Z,4.00
2022-08-17T00:22:32.033Z,4.10
2022-08-17T00:22:48.210Z,3.70
2022-08-17T00:23:49.305Z,4.20
2022-08-17T00:24:47.130Z,4.90
2022-08-17T00:25:47.109Z,4.50
2022-08-17T00:26:47.128Z,5.10
2022-08-17T00:27:47.096Z,5.10
2022-08-17T00:28:47.094Z,5.00
2022-08-17T00:29:47.084Z,5.10
2022-08-17T00:30:50.995Z,5.00
2022-08-17T00:31:48.088Z,4.30
2022-08-17T00:33:14.103Z,4.80
2022-08-17T00:33:48.054Z,4.90
2022-08-17T00:34:47.040Z,4.80
2022-08-17T00:35:47.030Z,4.40
2022-08-17T00:36:47.071Z,4.50
2022-08-17T00:37:47.014Z,4.20
2022-08-17T00:38:47.010Z,4.30
2022-08-17T00:39:47.052Z,3.80
2022-08-17T00:40:46.994Z,4.60
2022-08-17T00:41:47.034Z,4.50
2022-08-17T00:42:46.997Z,5.60
2022-08-17T00:43:46.972Z,4.60
2022-08-17T00:44:46.965Z,5.10
2022-08-17T00:45:46.959Z,4.70
2022-08-17T00:46:46.978Z,5.20
2022-08-17T00:47:46.929Z,4.80
2022-08-17T00:48:46.926Z,4.80
2022-08-17T00:49:46.921Z,4.70
2022-08-17T00:50:46.909Z,4.10
2022-08-17T00:51:46.941Z,5.10
2022-08-17T00:52:46.904Z,4.80
2022-08-17T00:53:46.880Z,4.80
2022-08-17T00:54:46.872Z,4.30
2022-08-17T00:55:46.869Z,4.90
2022-08-17T00:56:46.893Z,4.80
2022-08-17T00:57:46.840Z,4.80
2022-08-17T00:58:46.839Z,4.60
2022-08-17T00:59:46.838Z,4.90
2022-08-17T01:00:47.870Z,4.80
2022-08-17T01:01:46.849Z,4.50
2022-08-17T01:02:46.818Z,5.20
2022-08-17T01:03:46.793Z,4.70
2022-08-17T01:04:46.793Z,4.90
2022-08-17T01:05:46.782Z,5.00
2022-08-17T01:06:46.841Z,5.00
2022-08-17T01:07:46.765Z,5.10
2022-08-17T01:08:46.760Z,5.20
2022-08-17T01:09:46.750Z,5.00
2022-08-17T01:10:58.691Z,4.60
2022-08-17T01:11:47.753Z,5.10
2022-08-17T01:12:46.762Z,4.50
2022-08-17T01:13:46.714Z,4.80
2022-08-17T01:14:46.714Z,4.40
2022-08-17T01:15:46.698Z,4.80
2022-08-17T01:16:46.728Z,4.90
2022-08-17T01:17:46.684Z,4.20
2022-08-17T01:18:46.695Z,4.60
2022-08-17T01:19:46.660Z,4.50
2022-08-17T01:20:48.183Z,5.00
2022-08-17T01:21:46.675Z,5.40
2022-08-17T01:22:46.670Z,5.50
2022-08-17T01:23:46.638Z,4.90
2022-08-17T01:24:46.624Z,4.40
2022-08-17T01:25:46.613Z,4.80
2022-08-17T01:26:46.641Z,5.00
2022-08-17T01:27:46.608Z,4.30
2022-08-17T01:28:55.084Z,4.60
2022-08-17T01:29:47.585Z,4.90
2022-08-17T01:30:56.994Z,5.00
2022-08-17T01:31:47.593Z,5.10
2022-08-17T01:32:46.609Z,5.40
2022-08-17T01:33:46.554Z,5.10
2022-08-17T01:34:50.655Z,5.40
2022-08-17T01:35:46.534Z,5.20
2022-08-17T01:36:46.558Z,5.30
2022-08-17T01:37:46.523Z,5.70
2022-08-17T01:38:46.510Z,5.50
2022-08-17T01:39:46.523Z,5.00
2022-08-17T01:40:46.489Z,5.40
2022-08-17T01:41:46.514Z,5.10
2022-08-17T01:42:46.563Z,5.40
2022-08-17T01:43:47.474Z,5.30
2022-08-17T01:44:46.464Z,5.80
2022-08-17T01:45:46.450Z,5.60
2022-08-17T01:46:46.475Z,4.90
2022-08-17T01:47:46.442Z,5.00
2022-08-17T01:48:46.425Z,4.80
2022-08-17T01:49:46.427Z,5.60
2022-08-17T01:50:46.403Z,5.10
2022-08-17T01:51:46.403Z,5.40
2022-08-17T01:52:46.480Z,5.80
2022-08-17T01:53:46.386Z,4.90
2022-08-17T01:54:46.375Z,5.30
2022-08-17T01:55:46.372Z,4.70
2022-08-17T01:56:47.206Z,5.20
2022-08-17T01:57:46.386Z,5.30
2022-08-17T01:58:46.345Z,4.90
2022-08-17T01:59:46.341Z,5.10
2022-08-17T02:00:47.815Z,4.90
2022-08-17T02:01:47.370Z,4.90
2022-08-17T02:02:46.332Z,5.20
2022-08-17T02:03:53.492Z,5.30
2022-08-17T02:04:47.289Z,4.90
2022-08-17T02:05:46.285Z,4.70
2022-08-17T02:06:53.112Z,5.30
2022-08-17T02:08:00.437Z,5.80
2022-08-17T02:09:02.448Z,5.40
2022-08-17T02:09:47.252Z,5.60
2022-08-17T02:10:47.237Z,5.30
2022-08-17T02:11:46.380Z,5.20
2022-08-17T02:12:46.255Z,4.80
2022-08-17T02:13:46.209Z,5.00
2022-08-17T02:14:46.208Z,5.20
2022-08-17T02:15:46.198Z,5.00
2022-08-17T02:16:46.190Z,5.30
2022-08-17T02:17:46.216Z,4.60
2022-08-17T02:18:46.170Z,5.20
2022-08-17T02:19:46.176Z,4.60
2022-08-17T02:20:46.151Z,5.00
2022-08-17T02:21:46.150Z,5.40
2022-08-17T02:22:46.260Z,5.00
2022-08-17T02:23:46.133Z,5.40
2022-08-17T02:24:59.964Z,4.90
2022-08-17T02:25:47.120Z,4.30
2022-08-17T02:26:46.100Z,4.70
2022-08-17T02:27:46.122Z,4.10
2022-08-17T02:28:46.094Z,4.50
2022-08-17T02:29:46.081Z,4.90
2022-08-17T02:31:02.155Z,5.00
2022-08-17T02:31:47.059Z,4.20
2022-08-17T02:32:46.131Z,5.50
2022-08-17T02:33:46.045Z,6.10
2022-08-17T02:34:47.024Z,4.80
2022-08-17T02:35:47.032Z,6.10
2022-08-17T02:36:46.021Z,5.40
2022-08-17T02:37:46.063Z,5.60
2022-08-17T02:38:47.000Z,4.90
2022-08-17T02:39:46.047Z,5.80
2022-08-17T02:40:45.998Z,5.30
2022-08-17T02:41:45.991Z,5.00
2022-08-17T02:42:46.052Z,5.70
2022-08-17T02:43:45.959Z,5.30
2022-08-17T02:44:45.951Z,5.40
2022-08-17T02:45:45.941Z,5.20
2022-08-17T02:46:45.938Z,5.50
2022-08-17T02:47:45.960Z,5.40
2022-08-17T02:48:45.912Z,4.90
2022-08-17T02:49:54.461Z,5.00
2022-08-17T02:50:47.907Z,5.30
2022-08-17T02:51:45.890Z,5.50
2022-08-17T02:52:57.259Z,5.70
2022-08-17T02:53:46.891Z,6.10
2022-08-17T02:54:45.866Z,5.90
2022-08-17T02:55:45.857Z,6.00
2022-08-17T02:56:45.855Z,5.70
2022-08-17T02:57:45.875Z,5.20
2022-08-17T02:58:45.867Z,5.30
2022-08-17T02:59:49.080Z,5.00
2022-08-17T03:00:46.821Z,5.20
2022-08-17T03:01:45.837Z,5.40
2022-08-17T03:02:45.969Z,5.40
2022-08-17T03:03:45.811Z,6.00
2022-08-17T03:04:45.807Z,6.00
2022-08-17T03:05:45.777Z,5.70
2022-08-17T03:06:45.768Z,5.90
2022-08-17T03:07:45.790Z,5.70
2022-08-17T03:08:45.757Z,4.80
2022-08-17T03:09:45.750Z,4.70
2022-08-17T03:10:45.745Z,5.60
2022-08-17T03:11:45.751Z,5.50
2022-08-17T03:12:45.724Z,5.50
2022-08-17T03:13:45.746Z,6.00
2022-08-17T03:14:45.706Z,5.20
2022-08-17T03:15:45.697Z,4.90
2022-08-17T03:16:45.690Z,5.10
2022-08-17T03:17:45.684Z,4.50
2022-08-17T03:18:45.703Z,4.50
2022-08-17T03:19:45.670Z,5.00
2022-08-17T03:20:45.660Z,4.80
2022-08-17T03:21:45.648Z,4.80
2022-08-17T03:22:48.074Z,4.80
2022-08-17T03:23:46.630Z,5.80
2022-08-17T03:24:46.626Z,5.70
2022-08-17T03:25:45.613Z,6.00
2022-08-17T03:26:45.613Z,5.60
2022-08-17T03:27:48.226Z,6.50
2022-08-17T03:28:46.603Z,6.70
2022-08-17T03:29:45.581Z,6.50
2022-08-17T03:30:45.579Z,6.30
2022-08-17T03:31:45.573Z,7.00
2022-08-17T03:32:45.595Z,7.60
2022-08-17T03:33:45.554Z,8.10
2022-08-17T03:34:45.542Z,6.30
2022-08-17T03:35:45.532Z,6.60
2022-08-17T03:36:45.525Z,5.50
2022-08-17T03:37:45.553Z,5.70
2022-08-17T03:38:45.575Z,5.80
2022-08-17T03:39:45.617Z,5.60
2022-08-17T03:40:57.256Z,6.10
2022-08-17T03:41:46.489Z,5.70
2022-08-17T03:42:45.562Z,6.20
2022-08-17T03:43:45.494Z,6.70
2022-08-17T03:44:45.469Z,6.50
2022-08-17T03:45:45.461Z,6.40
2022-08-17T03:46:45.441Z,6.10
2022-08-17T03:47:45.468Z,6.10
2022-08-17T03:48:45.434Z,5.60
2022-08-17T03:49:45.410Z,5.90
2022-08-17T03:50:45.413Z,5.90
2022-08-17T03:51:45.397Z,6.10
2022-08-17T03:52:45.438Z,5.60
2022-08-17T03:53:46.381Z,5.00
2022-08-17T03:54:45.383Z,5.30
2022-08-17T03:55:45.371Z,5.40
2022-08-17T03:56:45.358Z,8.10
2022-08-17T03:57:46.395Z,12.40
2022-08-17T03:58:45.351Z,12.80
2022-08-17T03:59:45.406Z,15.00
2022-08-17T04:00:45.337Z,10.50
2022-08-17T04:01:45.381Z,11.00
2022-08-17T04:02:45.340Z,9.40
2022-08-17T04:03:45.297Z,7.20
2022-08-17T04:04:45.292Z,6.90
2022-08-17T04:05:45.290Z,7.50
2022-08-17T04:06:45.271Z,8.40
2022-08-17T04:07:45.295Z,6.60
2022-08-17T04:08:45.261Z,7.10
2022-08-17T04:09:45.260Z,6.60
2022-08-17T04:10:45.511Z,6.40
2022-08-17T04:11:45.233Z,6.50
2022-08-17T04:12:45.252Z,6.70
2022-08-17T04:13:45.259Z,6.90
2022-08-17T04:14:52.827Z,6.70
2022-08-17T04:15:46.200Z,5.30
2022-08-17T04:16:45.208Z,6.20
2022-08-17T04:17:45.210Z,7.50
2022-08-17T04:18:45.175Z,6.20
2022-08-17T04:19:45.172Z,6.30
2022-08-17T04:20:45.169Z,6.60
2022-08-17T04:21:45.154Z,5.60
2022-08-17T04:22:45.268Z,5.00
2022-08-17T04:23:45.134Z,5.90
2022-08-17T04:24:45.128Z,5.70
2022-08-17T04:25:45.115Z,5.70
2022-08-17T04:26:52.877Z,5.80
2022-08-17T04:27:46.128Z,5.30
2022-08-17T04:28:45.092Z,6.00
2022-08-17T04:29:55.144Z,6.40
2022-08-17T04:30:46.069Z,5.40
2022-08-17T04:31:45.071Z,6.20
2022-08-17T04:33:09.820Z,6.00
2022-08-17T04:33:46.047Z,6.20
2022-08-17T04:34:45.038Z,6.10
2022-08-17T04:35:45.032Z,5.60
2022-08-17T04:36:50.203Z,5.30
2022-08-17T04:37:46.038Z,6.50
2022-08-17T04:38:45.022Z,5.80
2022-08-17T04:39:45.101Z,6.10
2022-08-17T04:40:44.985Z,5.90
2022-08-17T04:41:44.983Z,6.30
2022-08-17T04:42:45.001Z,6.10
2022-08-17T04:43:44.973Z,5.50
2022-08-17T04:44:44.971Z,6.10
2022-08-17T04:45:55.356Z,5.80
2022-08-17T04:46:45.937Z,5.80
2022-08-17T04:47:44.969Z,5.70
2022-08-17T04:48:44.915Z,5.50
2022-08-17T04:49:44.914Z,6.00
2022-08-17T04:50:44.907Z,6.00
2022-08-17T04:51:51.622Z,6.10
2022-08-17T04:52:45.925Z,6.30
2022-08-17T04:53:44.880Z,5.90
2022-08-17T04:54:44.869Z,6.60
2022-08-17T04:55:44.876Z,6.00
2022-08-17T04:56:44.864Z,5.60
2022-08-17T04:57:45.229Z,5.80
2022-08-17T04:58:45.883Z,6.40
2022-08-17T04:59:44.849Z,6.40
2022-08-17T05:00:44.818Z,6.30
2022-08-17T05:01:44.855Z,6.30
2022-08-17T05:02:50.109Z,6.40
2022-08-17T05:03:45.817Z,6.40
2022-08-17T05:04:44.800Z,6.40
2022-08-17T05:05:44.783Z,6.20
2022-08-17T05:06:44.775Z,6.20
2022-08-17T05:07:44.765Z,6.30
2022-08-17T05:08:44.787Z,6.70
2022-08-17T05:09:44.748Z,5.70
2022-08-17T05:10:45.427Z,6.40
2022-08-17T05:11:44.927Z,6.20
2022-08-17T05:12:44.714Z,6.00
2022-08-17T05:13:44.739Z,6.20
2022-08-17T05:14:44.700Z,6.00
2022-08-17T05:15:45.045Z,6.10
2022-08-17T05:16:44.685Z,6.00
2022-08-17T05:17:44.677Z,6.20
2022-08-17T05:18:44.756Z,6.30
2022-08-17T05:19:47.658Z,6.60
2022-08-17T05:20:45.650Z,6.70
2022-08-17T05:21:44.648Z,6.10
2022-08-17T05:22:44.641Z,6.30
2022-08-17T05:23:44.658Z,6.60
2022-08-17T05:24:53.597Z,6.40
2022-08-17T05:25:45.676Z,6.40
2022-08-17T05:26:44.600Z,6.20
2022-08-17T05:27:44.605Z,6.10
2022-08-17T05:28:44.611Z,6.00
2022-08-17T05:29:44.574Z,6.00
2022-08-17T05:30:44.563Z,6.20
2022-08-17T05:31:44.557Z,5.80
2022-08-17T05:32:44.589Z,5.80
2022-08-17T05:33:44.614Z,6.80
2022-08-17T05:34:45.539Z,6.10
2022-08-17T05:35:44.527Z,5.90
2022-08-17T05:36:44.643Z,6.10
2022-08-17T05:37:45.549Z,6.00
2022-08-17T05:38:44.505Z,5.80
2022-08-17T05:39:44.539Z,6.40
2022-08-17T05:40:44.501Z,6.20
2022-08-17T05:41:44.471Z,5.70
2022-08-17T05:42:44.496Z,6.10
2022-08-17T05:43:44.461Z,5.70
2022-08-17T05:44:44.449Z,5.90
2022-08-17T05:45:56.155Z,6.00
2022-08-17T05:46:45.438Z,5.80
2022-08-17T05:47:44.435Z,6.10
2022-08-17T05:48:44.451Z,6.30
2022-08-17T05:49:44.410Z,5.40
2022-08-17T05:50:44.408Z,5.70
2022-08-17T05:51:44.399Z,5.80
2022-08-17T05:52:44.399Z,5.80
2022-08-17T05:53:44.409Z,5.80
2022-08-17T05:54:44.380Z,5.10
2022-08-17T05:55:44.365Z,5.10
2022-08-17T05:56:44.378Z,5.40
2022-08-17T05:57:53.244Z,5.20
2022-08-17T05:58:45.372Z,5.70
2022-08-17T05:59:44.337Z,5.70
2022-08-17T06:00:44.403Z,5.00
2022-08-17T06:01:44.321Z,5.30
2022-08-17T06:02:48.649Z,6.20
2022-08-17T06:03:45.335Z,5.40
2022-08-17T06:04:44.298Z,5.10
2022-08-17T06:05:44.296Z,5.60
2022-08-17T06:06:44.271Z,5.60
2022-08-17T06:07:44.266Z,5.00
2022-08-17T06:08:44.291Z,5.30
2022-08-17T06:09:44.252Z,5.10
2022-08-17T06:10:44.243Z,5.70
2022-08-17T06:11:44.237Z,5.30
2022-08-17T06:12:44.236Z,5.40
2022-08-17T06:13:44.249Z,5.30
2022-08-17T06:14:44.216Z,5.60
2022-08-17T06:15:44.198Z,6.10
2022-08-17T06:16:44.193Z,5.70
2022-08-17T06:17:44.189Z,5.70
2022-08-17T06:18:44.200Z,6.00
2022-08-17T06:19:44.178Z,5.30
2022-08-17T06:20:44.161Z,5.60
2022-08-17T06:21:44.172Z,5.60
2022-08-17T06:22:44.149Z,5.10
2022-08-17T06:23:44.165Z,5.80
2022-08-17T06:24:44.134Z,5.50
2022-08-17T06:25:44.125Z,5.70
2022-08-17T06:26:44.117Z,5.60
2022-08-17T06:27:44.104Z,5.40
2022-08-17T06:28:44.129Z,5.60
2022-08-17T06:29:44.095Z,5.70
2022-08-17T06:30:57.435Z,6.10
2022-08-17T06:31:45.074Z,5.20
2022-08-17T06:32:44.063Z,5.50
2022-08-17T06:33:44.085Z,5.50
2022-08-17T06:34:44.057Z,5.10
2022-08-17T06:35:44.061Z,5.50
2022-08-17T06:36:44.033Z,5.40
2022-08-17T06:37:44.025Z,5.40
2022-08-17T06:38:44.058Z,5.50
2022-08-17T06:39:44.070Z,5.30
2022-08-17T06:40:44.011Z,4.80
2022-08-17T06:41:44.010Z,4.90
2022-08-17T06:43:05.553Z,5.00
2022-08-17T06:43:47.952Z,4.90
2022-08-17T06:44:51.120Z,4.70
2022-08-17T06:45:44.967Z,5.20
2022-08-17T06:46:43.986Z,5.00
2022-08-17T06:47:43.949Z,4.60
2022-08-17T06:48:43.982Z,5.10
2022-08-17T06:49:43.931Z,4.90
2022-08-17T06:50:43.924Z,4.90
2022-08-17T06:51:43.916Z,5.30
2022-08-17T06:52:47.177Z,5.10
2022-08-17T06:53:43.934Z,4.90
2022-08-17T06:54:43.901Z,5.20
2022-08-17T06:55:43.874Z,4.80
2022-08-17T06:56:53.169Z,5.00
2022-08-17T06:57:44.888Z,5.50
2022-08-17T06:58:43.901Z,5.00
2022-08-17T06:59:54.977Z,4.70
2022-08-17T07:00:44.913Z,4.60
2022-08-17T07:01:43.925Z,5.10
2022-08-17T07:02:52.075Z,6.70
2022-08-17T07:03:44.848Z,5.00
2022-08-17T07:04:43.877Z,4.90
2022-08-17T07:05:43.803Z,5.10
2022-08-17T07:06:43.809Z,5.10
2022-08-17T07:07:43.789Z,4.60
2022-08-17T07:08:43.817Z,4.00
2022-08-17T07:09:43.779Z,5.00
2022-08-17T07:10:43.775Z,4.80
2022-08-17T07:11:43.769Z,4.60
2022-08-17T07:12:43.766Z,4.30
2022-08-17T07:13:43.772Z,4.40
2022-08-17T07:14:44.749Z,4.60
2022-08-17T07:15:43.734Z,4.30
2022-08-17T07:16:44.724Z,4.10
2022-08-17T07:17:47.230Z,4.60
2022-08-17T07:18:44.766Z,5.10
2022-08-17T07:19:43.715Z,4.60
2022-08-17T07:20:43.706Z,3.80
2022-08-17T07:21:43.673Z,4.20
2022-08-17T07:22:57.516Z,4.70
2022-08-17T07:23:44.664Z,4.80
2022-08-17T07:24:43.691Z,4.30
2022-08-17T07:25:43.661Z,4.00
2022-08-17T07:26:43.653Z,3.70
2022-08-17T07:27:43.677Z,3.90
2022-08-17T07:28:43.636Z,3.80
2022-08-17T07:29:43.648Z,3.90
2022-08-17T07:30:47.528Z,4.00
2022-08-17T07:31:43.615Z,4.10
2022-08-17T07:32:43.595Z,3.80
2022-08-17T07:33:43.597Z,3.90
2022-08-17T07:34:43.615Z,4.40
2022-08-17T07:35:44.577Z,4.00
2022-08-17T07:36:43.567Z,3.60
2022-08-17T07:37:43.600Z,4.00
2022-08-17T07:38:43.552Z,3.70
2022-08-17T07:39:59.705Z,3.30
2022-08-17T07:40:44.622Z,3.90
2022-08-17T07:41:53.168Z,3.90
2022-08-17T07:42:46.746Z,3.80
2022-08-17T07:43:44.525Z,3.50
2022-08-17T07:44:43.545Z,3.40
2022-08-17T07:45:43.502Z,3.40
2022-08-17T07:46:43.508Z,3.60
2022-08-17T07:47:43.515Z,3.40
2022-08-17T07:48:43.488Z,3.40
2022-08-17T07:49:43.507Z,3.30
2022-08-17T07:50:43.480Z,3.50
2022-08-17T07:51:44.468Z,3.40
2022-08-17T07:52:51.801Z,3.90
2022-08-17T07:53:44.451Z,3.50
2022-08-17T07:54:43.474Z,3.50
2022-08-17T07:55:43.429Z,3.50
2022-08-17T07:56:43.433Z,3.60
2022-08-17T07:57:43.451Z,3.20
2022-08-17T07:58:43.416Z,3.20
2022-08-17T07:59:43.491Z,3.20
2022-08-17T08:00:43.406Z,3.30
2022-08-17T08:01:43.421Z,3.30
2022-08-17T08:02:43.396Z,3.30
2022-08-17T08:03:43.374Z,3.00
2022-08-17T08:04:59.754Z,3.40
2022-08-17T08:05:50.722Z,3.30
2022-08-17T08:06:44.391Z,2.90
2022-08-17T08:07:43.434Z,3.00
2022-08-17T08:08:43.361Z,3.60
2022-08-17T08:09:43.363Z,3.10
2022-08-17T08:10:45.432Z,3.00
2022-08-17T08:11:44.400Z,3.30
2022-08-17T08:12:44.309Z,3.20
2022-08-17T08:13:43.304Z,2.80
2022-08-17T08:14:43.333Z,3.00
2022-08-17T08:15:45.141Z,2.70
2022-08-17T08:16:44.281Z,3.10
2022-08-17T08:17:43.351Z,3.00
2022-08-17T08:18:55.283Z,3.30
2022-08-17T08:19:44.291Z,3.00
2022-08-17T08:20:53.420Z,3.00
2022-08-17T08:21:44.250Z,2.90
2022-08-17T08:22:43.234Z,2.90
2022-08-17T08:23:43.274Z,2.90
2022-08-17T08:24:43.283Z,3.00
2022-08-17T08:25:43.260Z,2.90
2022-08-17T08:26:43.224Z,3.10
2022-08-17T08:27:43.248Z,2.90
2022-08-17T08:28:43.227Z,3.00
2022-08-17T08:29:43.211Z,3.00
2022-08-17T08:30:43.214Z,2.90
2022-08-17T08:31:43.175Z,2.90
2022-08-17T08:32:43.196Z,3.00
2022-08-17T08:33:43.155Z,2.70
2022-08-17T08:34:58.986Z,3.00
2022-08-17T08:35:44.178Z,2.70
2022-08-17T08:37:14.670Z,2.80
2022-08-17T08:37:44.154Z,3.20
2022-08-17T08:38:43.140Z,3.00
2022-08-17T08:39:43.169Z,3.10
2022-08-17T08:40:43.149Z,2.90
2022-08-17T08:41:43.299Z,3.10
2022-08-17T08:42:43.111Z,3.20
2022-08-17T08:43:43.109Z,3.30
2022-08-17T08:44:59.739Z,3.70
2022-08-17T08:45:44.111Z,3.00
2022-08-17T08:46:43.082Z,3.00
2022-08-17T08:47:43.072Z,3.30
2022-08-17T08:48:55.933Z,3.20
2022-08-17T08:50:03.238Z,3.00
2022-08-17T08:50:45.076Z,2.90
2022-08-17T08:51:43.052Z,2.90
2022-08-17T08:52:43.038Z,3.20
2022-08-17T08:53:43.048Z,3.10
2022-08-17T08:54:43.031Z,3.10
2022-08-17T08:55:43.050Z,2.80
2022-08-17T08:56:58.964Z,2.40
2022-08-17T08:57:45.049Z,3.10
2022-08-17T08:58:43.067Z,3.30
2022-08-17T08:59:44.537Z,2.50
2022-08-17T09:00:43.015Z,3.30
2022-08-17T09:01:43.029Z,2.70
2022-08-17T09:02:42.972Z,2.90
2022-08-17T09:03:52.837Z,2.70
2022-08-17T09:05:10.721Z,2.90
2022-08-17T09:05:44.973Z,2.90
2022-08-17T09:06:42.935Z,3.50
2022-08-17T09:07:43.004Z,2.60
2022-08-17T09:08:42.924Z,3.10
2022-08-17T09:09:42.926Z,3.00
2022-08-17T09:10:42.950Z,2.90
2022-08-17T09:12:02.109Z,2.60
2022-08-17T09:12:43.902Z,2.60
2022-08-17T09:13:42.892Z,2.90
2022-08-17T09:14:46.484Z,2.70
2022-08-17T09:15:42.920Z,2.50
2022-08-17T09:16:42.879Z,2.90
2022-08-17T09:17:42.870Z,2.90
2022-08-17T09:18:59.895Z,3.80
2022-08-17T09:19:43.857Z,3.40
2022-08-17T09:20:46.628Z,3.10
2022-08-17T09:21:48.523Z,3.30
2022-08-17T09:22:42.833Z,3.00
2022-08-17T09:23:42.834Z,2.90
2022-08-17T09:24:42.819Z,2.50
2022-08-17T09:25:42.843Z,2.40
2022-08-17T09:26:42.804Z,2.90
2022-08-17T09:27:42.895Z,2.60
2022-08-17T09:28:42.812Z,2.60
2022-08-17T09:29:42.815Z,2.40
2022-08-17T09:30:42.791Z,2.30
2022-08-17T09:31:49.150Z,2.10
2022-08-17T09:32:43.782Z,2.20
2022-08-17T09:33:42.762Z,2.00
2022-08-17T09:34:43.641Z,2.30
2022-08-17T09:35:42.798Z,2.20
2022-08-17T09:36:42.745Z,2.20
2022-08-17T09:37:42.756Z,2.40
2022-08-17T09:38:42.730Z,2.20
2022-08-17T09:39:42.836Z,2.60
2022-08-17T09:40:42.752Z,2.20
2022-08-17T09:41:48.512Z,2.10
2022-08-17T09:42:43.702Z,2.00
2022-08-17T09:43:42.715Z,2.00
2022-08-17T09:44:42.699Z,2.30
2022-08-17T09:45:42.710Z,2.30
2022-08-17T09:46:42.679Z,2.20
2022-08-17T09:47:42.784Z,2.10
2022-08-17T09:48:42.700Z,2.00
2022-08-17T09:49:42.669Z,2.10
2022-08-17T09:51:03.914Z,2.20
2022-08-17T09:51:43.635Z,2.50
2022-08-17T09:52:43.664Z,2.00
2022-08-17T09:53:44.781Z,2.30
2022-08-17T09:54:42.620Z,2.10
2022-08-17T09:55:42.649Z,2.10
2022-08-17T09:56:46.341Z,2.20
2022-08-17T09:57:44.647Z,1.90
2022-08-17T09:58:42.598Z,2.30
2022-08-17T09:59:42.607Z,2.00
2022-08-17T10:00:42.629Z,2.10
2022-08-17T10:01:42.664Z,2.60
2022-08-17T10:02:42.585Z,2.30
2022-08-17T10:03:42.573Z,2.50
2022-08-17T10:04:42.585Z,1.90
2022-08-17T10:05:42.694Z,2.30
2022-08-17T10:06:42.554Z,2.30
2022-08-17T10:07:42.556Z,2.50
2022-08-17T10:08:42.540Z,2.10
2022-08-17T10:09:42.536Z,2.30
2022-08-17T10:10:42.563Z,2.30
2022-08-17T10:11:43.542Z,2.10
2022-08-17T10:12:45.174Z,2.50
2022-08-17T10:13:53.210Z,2.10
2022-08-17T10:14:43.814Z,1.90
2022-08-17T10:15:42.794Z,2.20
2022-08-17T10:16:43.495Z,2.20
2022-08-17T10:17:42.479Z,2.40
2022-08-17T10:18:42.472Z,2.40
2022-08-17T10:19:44.138Z,2.40
2022-08-17T10:20:42.497Z,2.20
2022-08-17T10:21:42.466Z,2.20
2022-08-17T10:22:42.484Z,2.20
2022-08-17T10:23:42.451Z,2.20
2022-08-17T10:25:21.856Z,2.30
2022-08-17T10:25:54.724Z,2.40
2022-08-17T10:26:56.651Z,2.20
2022-08-17T10:27:43.436Z,2.40
2022-08-17T10:28:43.412Z,2.30
2022-08-17T10:29:49.152Z,2.20
2022-08-17T10:30:43.578Z,2.30
2022-08-17T10:31:42.379Z,2.50
2022-08-17T10:32:42.374Z,2.50
2022-08-17T10:33:42.371Z,2.20
2022-08-17T10:34:42.363Z,2.20
2022-08-17T10:35:42.428Z,2.30
2022-08-17T10:36:42.353Z,2.60
2022-08-17T10:37:42.488Z,2.50
2022-08-17T10:38:42.363Z,2.10
2022-08-17T10:39:52.397Z,2.60
2022-08-17T10:40:43.361Z,2.40
2022-08-17T10:41:42.351Z,2.30
2022-08-17T10:42:42.305Z,2.30
2022-08-17T10:43:42.293Z,2.30
2022-08-17T10:44:43.291Z,2.60
2022-08-17T10:45:42.284Z,2.30
2022-08-17T10:46:42.306Z,2.20
2022-08-17T10:47:54.862Z,2.40
2022-08-17T10:48:44.265Z,2.60
2022-08-17T10:49:42.259Z,2.20
2022-08-17T10:50:42.416Z,2.60
2022-08-17T10:51:42.435Z,2.60
2022-08-17T10:52:42.349Z,2.40
2022-08-17T10:53:42.326Z,2.30
2022-08-17T10:54:42.236Z,2.40
2022-08-17T10:55:42.209Z,2.60
2022-08-17T10:56:42.234Z,2.60
2022-08-17T10:57:42.201Z,2.60
2022-08-17T10:58:42.192Z,2.60
2022-08-17T10:59:42.181Z,2.60
2022-08-17T11:00:42.230Z,2.70
2022-08-17T11:01:42.195Z,2.50
2022-08-17T11:02:42.177Z,2.70
2022-08-17T11:03:42.153Z,2.50
2022-08-17T11:04:42.159Z,2.60
2022-08-17T11:05:44.026Z,2.40
2022-08-17T11:06:43.158Z,2.60
2022-08-17T11:07:42.137Z,2.60
2022-08-17T11:08:42.121Z,2.40
2022-08-17T11:09:42.121Z,2.70
2022-08-17T11:10:42.111Z,2.90
2022-08-17T11:11:42.125Z,2.70
2022-08-17T11:12:42.230Z,2.60
2022-08-17T11:13:42.083Z,2.30
2022-08-17T11:14:42.079Z,2.40
2022-08-17T11:15:42.066Z,2.50
2022-08-17T11:16:42.085Z,2.70
2022-08-17T11:17:42.047Z,2.60
2022-08-17T11:18:42.053Z,2.50
2022-08-17T11:19:42.131Z,2.60
2022-08-17T11:20:42.061Z,2.40
2022-08-17T11:21:42.054Z,2.40
2022-08-17T11:22:42.023Z,2.30
2022-08-17T11:23:42.007Z,2.70
2022-08-17T11:24:43.400Z,2.40
2022-08-17T11:25:42.009Z,2.20
2022-08-17T11:26:42.021Z,2.50
2022-08-17T11:27:41.983Z,2.70
2022-08-17T11:28:41.971Z,2.40
2022-08-17T11:29:41.956Z,2.70
2022-08-17T11:30:44.326Z,2.30
2022-08-17T11:31:41.980Z,2.70
2022-08-17T11:32:47.718Z,2.00
2022-08-17T11:33:42.935Z,2.80
2022-08-17T11:34:41.913Z,2.40
2022-08-17T11:35:42.646Z,2.40
2022-08-17T11:36:41.950Z,2.60
2022-08-17T11:37:41.897Z,2.40
2022-08-17T11:38:41.901Z,2.50
2022-08-17T11:39:41.977Z,2.40
2022-08-17T11:40:41.874Z,2.50
2022-08-17T11:41:41.876Z,2.30
2022-08-17T11:42:41.907Z,2.50
2022-08-17T11:43:42.919Z,2.50
2022-08-17T11:44:42.852Z,2.90
2022-08-17T11:45:41.858Z,2.60
2022-08-17T11:46:41.869Z,3.00
2022-08-17T11:47:42.837Z,2.70
2022-08-17T11:48:41.811Z,2.70
2022-08-17T11:49:41.812Z,2.60
2022-08-17T11:50:41.805Z,2.40
2022-08-17T11:51:41.840Z,2.60
2022-08-17T11:52:41.795Z,2.60
2022-08-17T11:53:41.781Z,2.50
2022-08-17T11:54:41.766Z,2.90
2022-08-17T11:55:44.802Z,2.60
2022-08-17T11:56:42.775Z,2.40
2022-08-17T11:57:41.750Z,2.50
2022-08-17T11:58:41.742Z,2.80
2022-08-17T11:59:41.728Z,2.60
2022-08-17T12:00:41.731Z,2.40
2022-08-17T12:01:41.763Z,2.50
2022-08-17T12:02:46.943Z,2.40
2022-08-17T12:03:53.840Z,2.30
2022-08-17T12:04:42.737Z,2.00
2022-08-17T12:05:41.687Z,2.10
2022-08-17T12:06:41.725Z,2.30
2022-08-17T12:07:41.670Z,2.50
2022-08-17T12:08:41.665Z,2.20
2022-08-17T12:09:41.656Z,2.40
2022-08-17T12:10:41.657Z,2.00
2022-08-17T12:11:58.731Z,2.20
2022-08-17T12:12:42.636Z,2.10
2022-08-17T12:13:41.621Z,2.20
2022-08-17T12:15:08.119Z,2.50
2022-08-17T12:15:43.613Z,2.30
2022-08-17T12:16:41.642Z,2.30
2022-08-17T12:17:43.046Z,2.40
2022-08-17T12:18:42.597Z,2.30
2022-08-17T12:19:41.605Z,2.80
2022-08-17T12:20:41.572Z,2.10
2022-08-17T12:21:41.622Z,2.50
2022-08-17T12:22:41.562Z,2.20
2022-08-17T12:23:41.552Z,2.10
2022-08-17T12:24:41.547Z,2.30
2022-08-17T12:25:41.555Z,2.30
2022-08-17T12:26:41.588Z,1.80
2022-08-17T12:28:05.195Z,2.40
2022-08-17T12:28:42.562Z,2.10
2022-08-17T12:29:41.506Z,2.50
2022-08-17T12:30:41.503Z,2.50
2022-08-17T12:31:41.492Z,2.20
2022-08-17T12:32:41.587Z,2.60
2022-08-17T12:33:41.478Z,2.20
2022-08-17T12:34:41.505Z,2.30
2022-08-17T12:35:41.487Z,2.50
2022-08-17T12:36:41.480Z,2.60
2022-08-17T12:37:41.480Z,2.20
2022-08-17T12:38:41.452Z,2.20
2022-08-17T12:39:41.506Z,2.20
2022-08-17T12:40:41.434Z,2.40
2022-08-17T12:41:41.465Z,2.30
2022-08-17T12:42:41.476Z,2.30
2022-08-17T12:43:41.405Z,2.50
2022-08-17T12:44:50.291Z,2.30
2022-08-17T12:45:42.393Z,2.40
2022-08-17T12:46:41.380Z,2.30
2022-08-17T12:47:41.434Z,2.50
2022-08-17T12:48:59.267Z,2.70
2022-08-17T12:49:42.374Z,2.20
2022-08-17T12:50:41.368Z,2.30
2022-08-17T12:51:41.354Z,2.50
2022-08-17T12:52:41.367Z,2.40
2022-08-17T12:53:41.316Z,2.30
2022-08-17T12:54:41.317Z,2.20
2022-08-17T12:55:41.322Z,2.70
2022-08-17T12:56:41.456Z,2.60
2022-08-17T12:57:41.338Z,2.40
2022-08-17T12:58:41.294Z,2.40
2022-08-17T12:59:41.281Z,2.60
2022-08-17T13:00:41.275Z,2.80
2022-08-17T13:01:42.339Z,2.70
2022-08-17T13:02:41.295Z,2.60
2022-08-17T13:03:41.242Z,2.70
2022-08-17T13:04:41.237Z,2.60
2022-08-17T13:05:41.240Z,2.90
2022-08-17T13:06:41.239Z,2.90
2022-08-17T13:07:41.246Z,2.90
2022-08-17T13:08:41.220Z,2.90
2022-08-17T13:09:41.206Z,2.50
2022-08-17T13:10:41.189Z,2.90
2022-08-17T13:11:41.176Z,2.90
2022-08-17T13:12:41.203Z,3.10
2022-08-17T13:13:41.174Z,2.90
2022-08-17T13:14:41.164Z,3.30
2022-08-17T13:15:44.750Z,3.40
2022-08-17T13:16:41.146Z,3.60
2022-08-17T13:17:41.165Z,2.80
2022-08-17T13:18:41.148Z,3.10